createdAt,value
2022-08-26T00:04:27.673Z,25.20
2022-08-26T00:12:37.304Z,25.20
2022-08-26T00:20:44.087Z,25.10
2022-08-26T00:28:52.711Z,25.10
2022-08-26T00:36:58.619Z,24.90
2022-08-26T00:45:11.581Z,24.90
2022-08-26T00:53:26.295Z,24.70
2022-08-26T01:01:36.245Z,24.80
2022-08-26T01:09:41.694Z,24.80
2022-08-26T01:17:50.719Z,24.70
2022-08-26T01:26:05.810Z,24.70
2022-08-26T01:34:17.934Z,24.70
2022-08-26T01:42:29.009Z,24.40
2022-08-26T01:50:38.208Z,24.40
2022-08-26T01:58:49.649Z,24.30
2022-08-26T02:06:57.591Z,24.20
2022-08-26T02:15:11.188Z,24.20
2022-08-26T02:23:16.656Z,24.10
2022-08-26T02:31:25.921Z,24.00
2022-08-26T02:39:32.406Z,23.90
2022-08-26T02:47:40.565Z,23.80
2022-08-26T02:55:49.530Z,23.70
2022-08-26T03:03:58.702Z,23.60
2022-08-26T03:12:04.197Z,23.20
2022-08-26T03:20:13.758Z,23.00
2022-08-26T03:28:21.440Z,23.20
2022-08-26T03:36:29.817Z,23.30
2022-08-26T03:44:35.478Z,23.00
2022-08-26T03:52:44.241Z,22.90
2022-08-26T04:00:50.245Z,22.70
2022-08-26T04:09:05.440Z,22.60
2022-08-26T04:17:11.484Z,22.70
2022-08-26T04:25:20.492Z,22.70
2022-08-26T04:33:32.419Z,22.80
2022-08-26T04:41:41.657Z,22.90
2022-08-26T04:49:47.106Z,22.80
2022-08-26T04:57:55.164Z,22.70
2022-08-26T05:06:01.028Z,23.00
2022-08-26T05:14:10.190Z,23.30
2022-08-26T05:22:15.669Z,23.40
2022-08-26T05:30:26.756Z,23.70
2022-08-26T05:38:32.177Z,24.20
2022-08-26T05:46:42.086Z,24.70
2022-08-26T05:54:49.543Z,25.20
2022-08-26T06:02:58.968Z,26.00
2022-08-26T06:11:07.291Z,26.60
2022-08-26T06:19:17.577Z,27.30
2022-08-26T06:27:23.234Z,27.90
2022-08-26T06:35:31.650Z,28.40
2022-08-26T06:43:36.975Z,29.10
2022-08-26T06:51:45.226Z,29.70
2022-08-26T06:59:54.337Z,29.80
2022-08-26T07:08:02.322Z,30.10
2022-08-26T07:16:08.739Z,30.50
2022-08-26T07:24:17.666Z,30.90
2022-08-26T07:32:23.711Z,31.20
2022-08-26T07:40:32.091Z,31.40
2022-08-26T07:48:38.186Z,31.50
2022-08-26T07:56:48.654Z,31.80
2022-08-26T08:04:54.747Z,32.00
2022-08-26T08:13:03.181Z,32.00
2022-08-26T08:21:21.314Z,32.10
2022-08-26T08:29:30.704Z,32.20
2022-08-26T08:37:36.138Z,32.20
2022-08-26T08:45:52.550Z,32.30
2022-08-26T08:53:59.745Z,32.40
2022-08-26T09:02:16.871Z,32.60
2022-08-26T09:10:35.190Z,32.90
2022-08-26T09:19:04.257Z,33.00
2022-08-26T09:27:11.439Z,31.40
2022-08-26T09:35:31.014Z,32.20
2022-08-26T09:43:36.429Z,33.00
2022-08-26T09:51:44.894Z,33.60
2022-08-26T09:59:57.859Z,33.60
2022-08-26T10:08:25.978Z,34.40
2022-08-26T10:16:37.418Z,33.90
2022-08-26T10:24:54.471Z,34.80
2022-08-26T10:33:04.648Z,35.30
2022-08-26T10:41:16.957Z,35.80
2022-08-26T10:49:23.902Z,37.00
2022-08-26T10:57:49.335Z,39.20
2022-08-26T11:06:19.314Z,49.20
2022-08-26T11:14:53.590Z,58.30
2022-08-26T11:23:34.079Z,63.60
2022-08-26T11:32:00.022Z,66.00
2022-08-26T11:40:12.260Z,66.70
2022-08-26T11:48:23.944Z,67.60
2022-08-26T11:56:33.351Z,67.40
2022-08-26T12:04:44.116Z,67.10
2022-08-26T12:12:58.106Z,67.60
2022-08-26T12:21:16.253Z,68.10
2022-08-26T12:29:28.480Z,68.00
2022-08-26T12:37:40.385Z,69.40
2022-08-26T12:46:00.044Z,69.50
2022-08-26T12:54:08.228Z,69.70
2022-08-26T13:02:13.778Z,69.00
2022-08-26T13:10:40.262Z,67.80
2022-08-26T13:18:45.598Z,62.50
2022-08-26T13:26:54.995Z,52.00
2022-08-26T13:35:05.591Z,45.90
2022-08-26T13:43:14.556Z,42.10
2022-08-26T13:51:20.574Z,40.00
2022-08-26T13:59:28.604Z,38.90
2022-08-26T14:07:36.249Z,37.90
2022-08-26T14:15:46.806Z,37.30
2022-08-26T14:23:52.229Z,36.90
2022-08-26T14:32:06.910Z,36.60
2022-08-26T14:40:14.160Z,36.30
2022-08-26T14:48:22.333Z,36.10
2022-08-26T14:56:27.839Z,36.00
2022-08-26T15:04:35.930Z,35.90
2022-08-26T15:12:41.503Z,35.70
2022-08-26T15:20:49.791Z,35.50
2022-08-26T15:28:55.499Z,35.30
2022-08-26T15:37:03.458Z,35.10
2022-08-26T15:45:09.948Z,34.90
2022-08-26T15:53:18.375Z,34.80
2022-08-26T16:01:27.532Z,34.60
2022-08-26T16:09:37.118Z,34.30
2022-08-26T16:17:42.982Z,34.10
2022-08-26T16:25:51.405Z,34.00
2022-08-26T16:33:56.844Z,33.90
2022-08-26T16:42:04.856Z,33.70
2022-08-26T16:50:13.070Z,33.70
2022-08-26T16:58:22.330Z,33.50
2022-08-26T17:06:27.861Z,33.30
2022-08-26T17:14:36.279Z,33.20
2022-08-26T17:22:43.922Z,33.00
2022-08-26T17:30:54.366Z,32.60
2022-08-26T17:39:00.719Z,32.30
2022-08-26T17:47:09.561Z,31.90
2022-08-26T17:55:17.013Z,31.40
2022-08-26T18:03:25.257Z,31.10
2022-08-26T18:11:31.949Z,30.80
2022-08-26T18:19:39.934Z,30.40
2022-08-26T18:27:45.436Z,30.10
2022-08-26T18:35:56.510Z,29.60
2022-08-26T18:44:02.666Z,29.60
2022-08-26T18:52:10.684Z,29.40
2022-08-26T19:00:17.667Z,29.30
2022-08-26T19:08:25.716Z,29.30
2022-08-26T19:16:34.396Z,29.20
2022-08-26T19:24:42.450Z,28.90
2022-08-26T19:32:48.027Z,28.90
2022-08-26T19:40:56.072Z,28.90
2022-08-26T19:49:01.530Z,28.90
2022-08-26T19:57:09.528Z,28.80
2022-08-26T20:05:16.690Z,28.70
2022-08-26T20:13:24.716Z,28.60
2022-08-26T20:21:31.706Z,28.30
2022-08-26T20:29:40.601Z,28.20
2022-08-26T20:37:46.138Z,28.20
2022-08-26T20:45:54.403Z,28.20
2022-08-26T20:54:01.939Z,28.10
2022-08-26T21:02:11.280Z,28.00
2022-08-26T21:10:18.119Z,27.90
2022-08-26T21:18:26.727Z,27.80
2022-08-26T21:26:32.539Z,27.30
2022-08-26T21:34:41.620Z,27.00
2022-08-26T21:42:47.004Z,27.00
2022-08-26T21:50:57.285Z,27.00
2022-08-26T21:59:03.874Z,26.90
2022-08-26T22:07:11.908Z,26.80
2022-08-26T22:15:19.895Z,26.70
2022-08-26T22:23:28.408Z,26.70
2022-08-26T22:31:38.332Z,26.70
2022-08-26T22:39:46.623Z,26.40
2022-08-26T22:47:52.070Z,26.40
2022-08-26T22:56:00.106Z,26.30
2022-08-26T23:04:07.445Z,25.80
2022-08-26T23:12:15.551Z,25.60
2022-08-26T23:20:22.541Z,25.80
2022-08-26T23:28:32.018Z,25.50
2022-08-26T23:36:37.421Z,25.30
2022-08-26T23:44:45.574Z,25.00
2022-08-26T23:53:03.585Z,25.10
